createdAt,value
2022-10-02T00:02:21.208Z,23.39
2022-10-02T00:05:02.970Z,23.42
2022-10-02T00:07:49.705Z,23.42
2022-10-02T00:10:21.362Z,23.41
2022-10-02T00:12:51.621Z,23.42
2022-10-02T00:15:25.888Z,23.44
2022-10-02T00:17:55.883Z,23.44
2022-10-02T00:20:31.679Z,23.46
2022-10-02T00:23:11.232Z,23.46
2022-10-02T00:25:43.882Z,23.46
2022-10-02T00:28:19.636Z,23.47
2022-10-02T00:31:21.305Z,23.44
2022-10-02T00:34:12.982Z,23.48
2022-10-02T00:37:03.058Z,23.44
2022-10-02T00:39:48.356Z,23.47
2022-10-02T00:42:33.591Z,23.46
2022-10-02T00:45:24.566Z,23.46
2022-10-02T00:47:54.124Z,23.44
2022-10-02T00:50:41.751Z,23.45
2022-10-02T00:53:31.484Z,23.48
2022-10-02T00:56:30.369Z,23.49
2022-10-02T00:59:30.834Z,23.48
2022-10-02T01:02:19.122Z,23.46
2022-10-02T01:04:48.077Z,23.48
2022-10-02T01:07:14.736Z,23.50
2022-10-02T01:09:41.924Z,23.49
2022-10-02T01:12:08.599Z,23.50
2022-10-02T01:14:37.589Z,23.54
2022-10-02T01:17:07.327Z,23.53
2022-10-02T01:19:42.565Z,23.53
2022-10-02T01:22:17.933Z,23.52
2022-10-02T01:24:55.288Z,23.54
2022-10-02T01:27:22.816Z,23.51
2022-10-02T01:29:55.909Z,23.52
2022-10-02T01:32:28.566Z,23.55
2022-10-02T01:34:56.592Z,23.52
2022-10-02T01:37:28.298Z,23.53
2022-10-02T01:39:59.538Z,23.54
2022-10-02T01:42:26.188Z,23.53
2022-10-02T01:44:52.866Z,23.52
2022-10-02T01:47:45.336Z,23.52
2022-10-02T01:50:11.896Z,23.53
2022-10-02T01:52:55.981Z,23.54
2022-10-02T01:55:41.125Z,23.54
2022-10-02T01:58:19.578Z,23.53
2022-10-02T02:01:05.574Z,23.54
2022-10-02T02:03:45.702Z,23.51
2022-10-02T02:06:34.470Z,23.52
2022-10-02T02:09:09.133Z,23.53
2022-10-02T02:11:41.165Z,23.50
2022-10-02T02:14:12.175Z,23.57
2022-10-02T02:16:43.731Z,23.53
2022-10-02T02:19:19.404Z,23.48
2022-10-02T02:21:52.843Z,23.45
2022-10-02T02:24:40.227Z,23.44
2022-10-02T02:27:10.282Z,23.40
2022-10-02T02:29:40.002Z,23.41
2022-10-02T02:32:10.281Z,23.42
2022-10-02T02:34:49.785Z,23.41
2022-10-02T02:37:21.500Z,23.39
2022-10-02T02:39:58.194Z,23.39
2022-10-02T02:42:30.167Z,23.36
2022-10-02T02:45:24.278Z,23.36
2022-10-02T02:48:16.254Z,23.37
2022-10-02T02:50:59.426Z,23.37
2022-10-02T02:53:39.724Z,23.37
2022-10-02T02:56:12.445Z,23.37
2022-10-02T02:58:56.512Z,23.36
2022-10-02T03:01:23.309Z,23.36
2022-10-02T03:03:49.929Z,23.38
2022-10-02T03:06:16.938Z,23.36
2022-10-02T03:08:44.607Z,23.37
2022-10-02T03:11:19.064Z,23.34
2022-10-02T03:13:54.686Z,23.34
2022-10-02T03:16:41.464Z,23.36
2022-10-02T03:19:29.208Z,23.35
2022-10-02T03:22:15.111Z,23.36
2022-10-02T03:24:49.127Z,23.36
2022-10-02T03:27:26.357Z,23.33
2022-10-02T03:30:00.056Z,23.33
2022-10-02T03:32:28.169Z,23.36
2022-10-02T03:34:57.191Z,23.35
2022-10-02T03:37:25.592Z,23.38
2022-10-02T03:39:52.896Z,23.35
2022-10-02T03:42:26.746Z,23.37
2022-10-02T03:44:53.541Z,23.37
2022-10-02T03:47:20.113Z,23.34
2022-10-02T03:49:46.693Z,23.35
2022-10-02T03:52:18.148Z,23.36
2022-10-02T03:54:44.925Z,23.36
2022-10-02T03:57:19.952Z,23.37
2022-10-02T04:00:13.048Z,23.35
2022-10-02T04:03:09.948Z,23.34
2022-10-02T04:05:44.398Z,23.34
2022-10-02T04:08:17.857Z,23.34
2022-10-02T04:11:00.329Z,23.35
2022-10-02T04:14:12.047Z,23.34
2022-10-02T04:16:39.208Z,23.33
2022-10-02T04:19:17.643Z,23.36
2022-10-02T04:21:49.135Z,23.36
2022-10-02T04:24:28.004Z,23.37
2022-10-02T04:27:07.386Z,23.37
2022-10-02T04:29:38.636Z,23.38
2022-10-02T04:32:14.222Z,23.39
2022-10-02T04:34:41.871Z,23.39
2022-10-02T04:37:23.664Z,23.41
2022-10-02T04:39:56.055Z,23.39
2022-10-02T04:42:31.384Z,23.40
2022-10-02T04:45:36.143Z,23.38
2022-10-02T04:48:33.534Z,23.38
2022-10-02T04:51:34.614Z,23.35
2022-10-02T04:54:25.171Z,23.37
2022-10-02T04:57:19.822Z,23.36
2022-10-02T05:00:09.353Z,23.36
2022-10-02T05:03:01.729Z,23.37
2022-10-02T05:05:59.383Z,23.37
2022-10-02T05:08:42.317Z,23.35
2022-10-02T05:11:30.448Z,23.36
2022-10-02T05:14:24.339Z,23.37
2022-10-02T05:17:07.790Z,23.36
2022-10-02T05:19:46.231Z,23.34
2022-10-02T05:22:48.187Z,23.35
2022-10-02T05:25:40.000Z,23.35
2022-10-02T05:28:18.492Z,23.39
2022-10-02T05:31:04.375Z,23.41
2022-10-02T05:33:55.420Z,23.40
2022-10-02T05:36:30.474Z,23.43
2022-10-02T05:39:13.978Z,23.43
2022-10-02T05:41:48.628Z,23.46
2022-10-02T05:44:21.907Z,23.45
2022-10-02T05:47:01.469Z,23.46
2022-10-02T05:49:41.862Z,23.48
2022-10-02T05:52:19.838Z,23.48
2022-10-02T05:54:58.631Z,23.46
2022-10-02T05:57:35.087Z,23.46
2022-10-02T06:00:19.884Z,23.51
2022-10-02T06:03:15.655Z,23.50
2022-10-02T06:05:55.556Z,23.44
2022-10-02T06:08:31.578Z,23.50
2022-10-02T06:11:06.458Z,23.55
2022-10-02T06:13:49.928Z,23.60
2022-10-02T06:16:28.700Z,23.67
2022-10-02T06:19:03.063Z,23.74
2022-10-02T06:21:59.951Z,23.93
2022-10-02T06:24:41.171Z,23.98
2022-10-02T06:27:19.390Z,23.96
2022-10-02T06:29:50.741Z,23.87
2022-10-02T06:32:48.805Z,23.94
2022-10-02T06:35:21.444Z,23.94
2022-10-02T06:38:03.135Z,23.98
2022-10-02T06:40:45.669Z,23.93
2022-10-02T06:43:24.602Z,23.93
2022-10-02T06:46:22.892Z,23.94
2022-10-02T06:48:58.708Z,23.92
2022-10-02T06:51:51.461Z,23.91
2022-10-02T06:54:30.992Z,23.92
2022-10-02T06:57:03.464Z,23.85
2022-10-02T07:00:04.032Z,23.88
2022-10-02T07:03:09.183Z,23.90
2022-10-02T07:05:56.874Z,23.93
2022-10-02T07:08:38.018Z,23.98
2022-10-02T07:11:18.361Z,24.03
2022-10-02T07:14:03.031Z,24.05
2022-10-02T07:16:41.468Z,24.06
2022-10-02T07:19:17.081Z,24.10
2022-10-02T07:21:46.512Z,24.09
2022-10-02T07:24:19.094Z,24.10
2022-10-02T07:26:59.842Z,24.11
2022-10-02T07:29:38.090Z,24.13
2022-10-02T07:32:11.771Z,24.19
2022-10-02T07:34:48.639Z,24.16
2022-10-02T07:37:50.796Z,24.17
2022-10-02T07:40:46.034Z,24.17
2022-10-02T07:43:46.474Z,24.20
2022-10-02T07:46:23.613Z,24.23
2022-10-02T07:49:01.848Z,24.34
2022-10-02T07:51:53.687Z,24.46
2022-10-02T07:54:20.196Z,24.55
2022-10-02T07:56:49.108Z,24.44
2022-10-02T07:59:17.780Z,24.39
2022-10-02T08:01:46.565Z,24.52
2022-10-02T08:04:34.623Z,24.62
2022-10-02T08:07:05.284Z,24.72
2022-10-02T08:09:53.354Z,24.96
2022-10-02T08:12:37.662Z,24.92
2022-10-02T08:15:06.415Z,24.84
2022-10-02T08:17:43.470Z,25.17
2022-10-02T08:20:34.091Z,25.38
2022-10-02T08:23:07.682Z,25.61
2022-10-02T08:25:46.231Z,25.48
2022-10-02T08:28:30.656Z,25.38
2022-10-02T08:30:58.792Z,25.76
2022-10-02T08:33:25.748Z,26.02
2022-10-02T08:36:07.997Z,26.13
2022-10-02T08:38:47.979Z,26.44
2022-10-02T08:41:44.222Z,26.77
2022-10-02T08:44:36.190Z,27.04
2022-10-02T08:47:36.317Z,27.26
2022-10-02T08:50:19.970Z,27.35
2022-10-02T08:53:22.034Z,26.75
2022-10-02T08:56:19.831Z,26.39
2022-10-02T08:59:25.896Z,25.95
2022-10-02T09:02:12.136Z,25.34
2022-10-02T09:05:03.173Z,25.49
2022-10-02T09:07:51.334Z,25.75
2022-10-02T09:10:45.975Z,25.75
2022-10-02T09:13:40.424Z,25.73
2022-10-02T09:16:15.275Z,25.29
2022-10-02T09:19:00.335Z,26.77
2022-10-02T09:21:42.002Z,26.43
2022-10-02T09:24:30.410Z,27.79
2022-10-02T09:27:24.107Z,27.14
2022-10-02T09:29:53.656Z,26.37
2022-10-02T09:32:51.010Z,26.66
2022-10-02T09:35:26.647Z,26.17
2022-10-02T09:38:14.304Z,25.97
2022-10-02T09:41:11.703Z,25.53
2022-10-02T09:43:56.952Z,25.65
2022-10-02T09:46:49.416Z,26.46
2022-10-02T09:49:21.678Z,27.00
2022-10-02T09:52:16.663Z,25.83
2022-10-02T09:54:49.037Z,25.75
2022-10-02T09:58:05.604Z,25.49
2022-10-02T10:01:05.883Z,25.15
2022-10-02T10:04:09.099Z,25.32
2022-10-02T10:06:50.590Z,25.81
2022-10-02T10:09:36.506Z,26.44
2022-10-02T10:12:49.439Z,26.89
2022-10-02T10:15:40.550Z,27.98
2022-10-02T10:18:10.438Z,26.27
2022-10-02T10:20:58.570Z,26.84
2022-10-02T10:23:51.210Z,25.80
2022-10-02T10:26:39.591Z,25.30
2022-10-02T10:29:31.958Z,26.69
2022-10-02T10:32:13.594Z,28.35
2022-10-02T10:35:20.289Z,27.57
2022-10-02T10:38:24.205Z,26.93
2022-10-02T10:41:23.843Z,25.96
2022-10-02T10:44:12.123Z,25.63
2022-10-02T10:46:54.314Z,25.68
2022-10-02T10:50:04.744Z,25.48
2022-10-02T10:52:45.679Z,25.29
2022-10-02T10:55:19.673Z,25.33
2022-10-02T10:57:55.347Z,25.14
2022-10-02T11:00:26.771Z,25.10
2022-10-02T11:03:12.618Z,24.96
2022-10-02T11:05:57.375Z,24.79
2022-10-02T11:08:55.428Z,24.71
2022-10-02T11:11:24.187Z,24.70
2022-10-02T11:14:15.749Z,24.68
2022-10-02T11:17:16.298Z,24.66
2022-10-02T11:20:01.354Z,24.70
2022-10-02T11:22:30.783Z,24.83
2022-10-02T11:25:13.283Z,24.94
2022-10-02T11:27:53.564Z,25.30
2022-10-02T11:30:41.598Z,25.03
2022-10-02T11:33:49.634Z,25.58
2022-10-02T11:36:25.375Z,25.49
2022-10-02T11:39:17.442Z,25.89
2022-10-02T11:42:13.044Z,25.84
2022-10-02T11:44:39.612Z,25.68
2022-10-02T11:47:28.714Z,25.42
2022-10-02T11:50:26.495Z,25.14
2022-10-02T11:53:17.736Z,25.36
2022-10-02T11:55:55.101Z,25.87
2022-10-02T11:58:51.262Z,25.46
2022-10-02T12:01:45.717Z,26.64
2022-10-02T12:04:18.681Z,25.48
2022-10-02T12:07:20.284Z,25.28
2022-10-02T12:09:46.806Z,24.97
2022-10-02T12:12:25.778Z,24.86
2022-10-02T12:15:23.961Z,24.91
2022-10-02T12:18:05.898Z,24.76
2022-10-02T12:20:57.308Z,24.81
2022-10-02T12:24:13.739Z,24.82
2022-10-02T12:27:16.223Z,24.84
2022-10-02T12:30:00.861Z,24.77
2022-10-02T12:32:56.767Z,24.72
2022-10-02T12:36:00.507Z,24.73
2022-10-02T12:38:42.706Z,24.73
2022-10-02T12:41:18.569Z,24.73
2022-10-02T12:44:17.071Z,24.70
2022-10-02T12:47:14.522Z,24.72
2022-10-02T12:49:53.241Z,24.79
2022-10-02T12:52:43.405Z,25.38
2022-10-02T12:55:37.963Z,25.80
2022-10-02T12:58:23.738Z,25.93
2022-10-02T13:01:12.058Z,26.09
2022-10-02T13:03:41.832Z,26.35
2022-10-02T13:06:23.625Z,26.28
2022-10-02T13:09:05.357Z,26.57
2022-10-02T13:12:09.183Z,26.66
2022-10-02T13:15:04.310Z,26.62
2022-10-02T13:17:34.159Z,26.91
2022-10-02T13:20:13.024Z,26.66
2022-10-02T13:23:04.391Z,26.85
2022-10-02T13:25:48.557Z,27.12
2022-10-02T13:28:36.609Z,27.40
2022-10-02T13:31:11.331Z,27.40
2022-10-02T13:34:15.607Z,27.25
2022-10-02T13:37:03.500Z,27.41
2022-10-02T13:39:56.360Z,27.51
2022-10-02T13:42:47.341Z,26.86
2022-10-02T13:45:41.040Z,26.52
2022-10-02T13:48:13.560Z,26.62
2022-10-02T13:50:50.413Z,26.45
2022-10-02T13:53:33.357Z,26.49
2022-10-02T13:56:21.280Z,26.16
2022-10-02T13:59:05.913Z,26.35
2022-10-02T14:01:51.333Z,26.16
2022-10-02T14:04:50.227Z,25.70
2022-10-02T14:07:19.725Z,25.56
2022-10-02T14:10:10.986Z,25.70
2022-10-02T14:13:10.933Z,25.74
2022-10-02T14:15:46.635Z,25.79
2022-10-02T14:18:28.199Z,25.57
2022-10-02T14:21:09.641Z,25.37
2022-10-02T14:23:48.150Z,25.41
2022-10-02T14:26:28.803Z,25.33
2022-10-02T14:29:23.406Z,25.14
2022-10-02T14:32:08.579Z,24.97
2022-10-02T14:35:11.134Z,24.79
2022-10-02T14:37:59.950Z,24.74
2022-10-02T14:40:34.021Z,24.71
2022-10-02T14:43:21.517Z,24.72
2022-10-02T14:45:57.740Z,24.76
2022-10-02T14:48:34.551Z,24.78
2022-10-02T14:51:38.936Z,24.93
2022-10-02T14:54:25.264Z,25.06
2022-10-02T14:57:07.114Z,25.04
2022-10-02T14:59:45.202Z,24.90
2022-10-02T15:02:21.671Z,24.92
2022-10-02T15:05:04.500Z,24.94
2022-10-02T15:07:34.621Z,24.98
2022-10-02T15:10:27.914Z,25.01
2022-10-02T15:13:01.850Z,25.01
2022-10-02T15:15:43.205Z,25.04
2022-10-02T15:18:32.537Z,25.08
2022-10-02T15:21:26.191Z,25.12
2022-10-02T15:23:58.545Z,25.17
2022-10-02T15:26:31.105Z,25.17
2022-10-02T15:29:47.023Z,25.16
2022-10-02T15:33:10.952Z,25.15
2022-10-02T15:36:14.759Z,25.23
2022-10-02T15:39:18.477Z,25.25
2022-10-02T15:42:03.075Z,25.31
2022-10-02T15:45:03.730Z,25.30
2022-10-02T15:47:48.989Z,25.31
2022-10-02T15:50:34.447Z,25.29
2022-10-02T15:53:21.901Z,25.27
2022-10-02T15:56:05.309Z,25.26
2022-10-02T15:58:50.390Z,25.24
2022-10-02T16:01:32.185Z,25.17
2022-10-02T16:04:27.506Z,25.16
2022-10-02T16:07:36.645Z,25.10
2022-10-02T16:10:06.172Z,25.07
2022-10-02T16:12:42.229Z,25.03
2022-10-02T16:15:23.824Z,25.01
2022-10-02T16:18:08.465Z,24.93
2022-10-02T16:21:01.173Z,24.95
2022-10-02T16:24:05.164Z,24.91
2022-10-02T16:26:35.164Z,24.91
2022-10-02T16:29:08.102Z,24.89
2022-10-02T16:32:19.165Z,24.85
2022-10-02T16:35:04.788Z,24.85
2022-10-02T16:37:45.069Z,24.82
2022-10-02T16:40:30.141Z,24.85
2022-10-02T16:43:20.631Z,24.84
2022-10-02T16:46:05.487Z,24.84
2022-10-02T16:48:53.814Z,24.79
2022-10-02T16:51:45.208Z,24.78
2022-10-02T16:54:22.906Z,24.80
2022-10-02T16:57:22.336Z,24.42
2022-10-02T17:00:16.689Z,24.64
2022-10-02T17:02:49.298Z,24.69
2022-10-02T17:05:34.953Z,24.72
2022-10-02T17:08:09.373Z,24.73
2022-10-02T17:10:44.788Z,24.72
2022-10-02T17:13:36.327Z,24.73
2022-10-02T17:16:16.362Z,24.71
2022-10-02T17:18:49.972Z,24.71
2022-10-02T17:21:22.321Z,24.67
2022-10-02T17:24:25.907Z,24.63
2022-10-02T17:27:06.925Z,24.59
2022-10-02T17:30:17.350Z,24.63
2022-10-02T17:32:46.837Z,24.62
2022-10-02T17:35:34.963Z,24.62
2022-10-02T17:38:07.742Z,24.58
2022-10-02T17:41:15.532Z,24.59
2022-10-02T17:43:58.082Z,24.57
2022-10-02T17:46:33.459Z,24.55
2022-10-02T17:49:11.671Z,24.55
2022-10-02T17:51:56.267Z,24.55
2022-10-02T17:55:07.407Z,24.51
2022-10-02T17:57:59.855Z,24.50
2022-10-02T18:00:27.726Z,24.46
2022-10-02T18:03:21.428Z,24.51
2022-10-02T18:05:56.989Z,24.50
2022-10-02T18:08:50.819Z,24.54
2022-10-02T18:12:04.712Z,24.50
2022-10-02T18:14:53.096Z,24.48
2022-10-02T18:17:32.931Z,24.50
2022-10-02T18:20:11.660Z,24.46
2022-10-02T18:22:50.028Z,24.49
2022-10-02T18:25:27.461Z,24.44
2022-10-02T18:28:11.323Z,24.46
2022-10-02T18:31:07.453Z,24.48
2022-10-02T18:33:50.124Z,24.43
2022-10-02T18:36:19.658Z,24.42
2022-10-02T18:38:58.635Z,24.42
2022-10-02T18:41:27.831Z,24.44
2022-10-02T18:44:00.632Z,24.46
2022-10-02T18:46:52.177Z,24.46
2022-10-02T18:49:33.603Z,24.44
2022-10-02T18:52:18.930Z,24.43
2022-10-02T18:55:04.197Z,24.42
2022-10-02T18:57:57.017Z,24.42
2022-10-02T19:00:33.321Z,24.39
2022-10-02T19:03:20.082Z,24.42
2022-10-02T19:05:53.447Z,24.41
2022-10-02T19:08:50.912Z,24.43
2022-10-02T19:11:18.874Z,24.45
2022-10-02T19:13:48.961Z,24.43
2022-10-02T19:16:24.596Z,24.48
2022-10-02T19:19:21.485Z,24.49
2022-10-02T19:21:48.752Z,24.44
2022-10-02T19:24:23.230Z,24.50
2022-10-02T19:26:56.363Z,24.49
2022-10-02T19:29:41.870Z,24.49
2022-10-02T19:32:27.832Z,24.49
2022-10-02T19:35:04.939Z,24.46
2022-10-02T19:37:33.290Z,24.47
2022-10-02T19:40:03.772Z,24.50
2022-10-02T19:42:39.950Z,24.50
2022-10-02T19:45:13.849Z,24.50
2022-10-02T19:47:48.420Z,24.50
2022-10-02T19:50:25.648Z,24.51
2022-10-02T19:53:01.278Z,24.51
2022-10-02T19:55:33.866Z,24.52
2022-10-02T19:58:06.401Z,24.50
2022-10-02T20:00:38.772Z,24.50
2022-10-02T20:03:14.875Z,24.50
2022-10-02T20:05:43.372Z,24.48
2022-10-02T20:08:40.339Z,24.48
2022-10-02T20:11:33.206Z,24.49
2022-10-02T20:14:08.103Z,24.50
2022-10-02T20:16:53.447Z,24.48
2022-10-02T20:19:24.152Z,24.47
2022-10-02T20:22:11.154Z,24.47
2022-10-02T20:25:07.583Z,24.49
2022-10-02T20:27:51.871Z,24.48
2022-10-02T20:30:20.957Z,24.46
2022-10-02T20:32:55.826Z,24.49
2022-10-02T20:35:34.910Z,24.49
2022-10-02T20:38:07.841Z,24.48
2022-10-02T20:40:38.831Z,24.47
2022-10-02T20:43:15.181Z,24.48
2022-10-02T20:46:24.024Z,24.46
2022-10-02T20:49:09.694Z,24.47
2022-10-02T20:51:57.596Z,24.44
2022-10-02T20:54:46.394Z,24.44
2022-10-02T20:58:03.691Z,24.43
2022-10-02T21:00:53.068Z,24.42
2022-10-02T21:03:44.743Z,24.40
2022-10-02T21:06:29.633Z,24.42
2022-10-02T21:08:56.950Z,24.43
2022-10-02T21:11:50.716Z,24.43
2022-10-02T21:14:35.828Z,24.43
2022-10-02T21:17:08.640Z,24.44
2022-10-02T21:20:05.493Z,24.41
2022-10-02T21:23:10.790Z,24.42
2022-10-02T21:26:26.842Z,24.38
2022-10-02T21:29:02.107Z,24.38
2022-10-02T21:32:15.763Z,24.40
2022-10-02T21:34:59.727Z,24.35
2022-10-02T21:37:44.890Z,24.35
2022-10-02T21:40:53.154Z,24.38
2022-10-02T21:43:44.280Z,24.40
2022-10-02T21:46:23.058Z,24.37
2022-10-02T21:49:04.901Z,24.34
2022-10-02T21:52:04.667Z,24.35
2022-10-02T21:55:04.531Z,24.37
2022-10-02T21:57:33.686Z,24.33
2022-10-02T22:00:01.001Z,24.30
2022-10-02T22:02:46.338Z,24.36
2022-10-02T22:05:37.866Z,24.36
2022-10-02T22:08:12.142Z,24.32
2022-10-02T22:11:12.189Z,24.36
2022-10-02T22:13:43.206Z,24.34
2022-10-02T22:16:34.596Z,24.31
2022-10-02T22:19:30.708Z,24.37
2022-10-02T22:22:18.536Z,24.35
2022-10-02T22:24:45.045Z,24.34
2022-10-02T22:27:20.318Z,24.37
2022-10-02T22:29:49.954Z,24.41
2022-10-02T22:33:08.151Z,24.46
2022-10-02T22:35:49.532Z,24.44
2022-10-02T22:38:32.991Z,24.42
2022-10-02T22:41:06.937Z,24.44
2022-10-02T22:43:56.437Z,24.47
2022-10-02T22:46:41.145Z,24.49
2022-10-02T22:49:37.412Z,24.50
2022-10-02T22:52:24.233Z,24.52
2022-10-02T22:55:09.725Z,24.51
2022-10-02T22:57:46.417Z,24.53
2022-10-02T23:00:31.636Z,24.53
2022-10-02T23:03:08.761Z,24.52
2022-10-02T23:05:50.247Z,24.54
2022-10-02T23:08:51.126Z,24.55
2022-10-02T23:11:24.922Z,24.55
2022-10-02T23:14:00.694Z,24.58
2022-10-02T23:17:02.944Z,24.59
2022-10-02T23:19:54.065Z,24.57
2022-10-02T23:22:33.073Z,24.57
2022-10-02T23:25:19.211Z,24.56
2022-10-02T23:27:54.909Z,24.58
2022-10-02T23:30:23.242Z,24.58
2022-10-02T23:33:04.170Z,24.61
2022-10-02T23:35:48.899Z,24.62
2022-10-02T23:38:23.314Z,24.63
2022-10-02T23:41:20.922Z,24.65
2022-10-02T23:44:20.779Z,24.62
2022-10-02T23:46:50.352Z,24.62
2022-10-02T23:49:19.758Z,24.63
2022-10-02T23:51:52.141Z,24.65
2022-10-02T23:54:46.374Z,24.66
2022-10-02T23:57:19.015Z,24.64
2022-10-02T23:59:51.857Z,24.66
